Time;durP1;ratioP1;P1;durP2;ratioP2;P2;SDS_P1;SDS_P2;PMS_P1;PMS_P2;Temp;Humidity;BMP_temperature;BMP_pressure;BME280_temperature;BME280_humidity;BME280_pressure;Samples;Min_cycle;Max_cycle;Signal;HPM_P1;HPM_P2
2022/12/10 00:01:11;;;;;;;83.60;27.27;;;;;;;;;;5028527;28;20040;-82
2022/12/10 00:03:36;;;;;;;78.38;26.35;;;;;;;;;;5040488;28;20112;-82
2022/12/10 00:06:02;;;;;;;101.30;28.00;;;;;;;;;;5040972;28;20472;-82
2022/12/10 00:08:28;;;;;;;85.82;27.00;;;;;;;;;;5059615;28;20462;-82
2022/12/10 00:10:53;;;;;;;95.30;28.88;;;;;;;;;;5065062;28;20044;-82
2022/12/10 00:13:19;;;;;;;79.18;26.88;;;;;;;;;;5061907;28;20032;-82
2022/12/10 00:15:44;;;;;;;98.93;27.83;;;;;;;;;;5047719;28;20090;-82
2022/12/10 00:18:10;;;;;;;96.05;28.63;;;;;;;;;;5049593;28;20049;-82
2022/12/10 00:20:36;;;;;;;89.72;26.60;;;;;;;;;;5030433;28;20121;-82
2022/12/10 00:23:01;;;;;;;90.25;27.48;;;;;;;;;;5027009;28;20483;-82
2022/12/10 00:25:27;;;;;;;156.07;29.92;;;;;;;;;;5035480;28;20094;-82
2022/12/10 00:27:52;;;;;;;90.95;26.83;;;;;;;;;;5051579;28;20032;-82
2022/12/10 00:30:18;;;;;;;93.97;26.13;;;;;;;;;;5060481;28;20127;-82
2022/12/10 00:32:43;;;;;;;128.93;28.08;;;;;;;;;;5030530;28;20021;-82
2022/12/10 00:35:09;;;;;;;122.05;26.95;;;;;;;;;;5019013;28;20551;-82
2022/12/10 00:37:34;;;;;;;121.43;28.00;;;;;;;;;;5052777;28;20157;-82
2022/12/10 00:40:00;;;;;;;174.73;30.75;;;;;;;;;;5045156;28;20043;-83
2022/12/10 00:42:25;;;;;;;130.73;27.70;;;;;;;;;;5036767;28;20036;-82
2022/12/10 00:44:51;;;;;;;90.68;27.23;;;;;;;;;;5027445;28;20040;-82
2022/12/10 00:47:16;;;;;;;255.80;31.60;;;;;;;;;;5044724;28;20090;-83
2022/12/10 00:49:42;;;;;;;397.45;37.67;;;;;;;;;;5028309;28;20128;-82
2022/12/10 00:52:07;;;;;;;200.57;29.88;;;;;;;;;;5035178;28;20616;-82
2022/12/10 00:54:33;;;;;;;212.35;31.85;;;;;;;;;;5043509;28;20480;-82
2022/12/10 00:56:58;;;;;;;126.28;27.33;;;;;;;;;;5027162;28;20047;-82
2022/12/10 00:59:24;;;;;;;138.13;27.15;;;;;;;;;;5048573;28;20119;-82
2022/12/10 01:01:49;;;;;;;155.35;30.35;;;;;;;;;;5063137;28;20146;-82
2022/12/10 01:04:15;;;;;;;134.18;28.42;;;;;;;;;;5034642;28;20091;-82
2022/12/10 01:06:41;;;;;;;;;;;;;;;;;;5042997;28;20526;-81
2022/12/10 01:09:07;;;;;;;134.93;28.75;;;;;;;;;;5033243;28;19912;-81
2022/12/10 01:11:33;;;;;;;123.38;28.02;;;;;;;;;;5022436;28;20022;-81
2022/12/10 01:13:59;;;;;;;235.70;31.95;;;;;;;;;;5055484;28;20533;-82
2022/12/10 01:16:25;;;;;;;132.23;27.63;;;;;;;;;;5040048;28;20048;-82
2022/12/10 01:18:54;;;;;;;188.90;30.40;;;;;;;;;;5018803;28;20035;-81
2022/12/10 01:21:20;;;;;;;175.68;30.73;;;;;;;;;;5052113;28;20036;-83
2022/12/10 01:23:46;;;;;;;177.70;31.73;;;;;;;;;;5033822;28;20396;-81
2022/12/10 01:26:11;;;;;;;;;;;;;;;;;;5043546;28;20426;-80
2022/12/10 01:28:37;;;;;;;406.13;33.95;;;;;;;;;;5033054;28;19912;-81
2022/12/10 01:31:03;;;;;;;;;;;;;;;;;;5015793;28;20032;-80
2022/12/10 01:33:30;;;;;;;396.75;36.75;;;;;;;;;;5033206;28;20007;-83
2022/12/10 01:35:56;;;;;;;292.40;33.05;;;;;;;;;;5048092;28;20030;-82
2022/12/10 01:38:22;;;;;;;172.48;29.77;;;;;;;;;;5050670;28;20041;-82
2022/12/10 01:40:47;;;;;;;;;;;;;;;;;;5028196;28;20030;-82
2022/12/10 01:43:13;;;;;;;172.27;29.08;;;;;;;;;;5050541;28;19916;-82
2022/12/10 01:45:39;;;;;;;174.73;30.13;;;;;;;;;;5016421;28;20122;-82
2022/12/10 01:48:05;;;;;;;220.10;29.65;;;;;;;;;;5029027;28;20512;-82
2022/12/10 01:50:31;;;;;;;246.23;31.60;;;;;;;;;;5014341;28;20107;-82
2022/12/10 01:52:56;;;;;;;281.05;31.27;;;;;;;;;;5030521;28;20067;-82
2022/12/10 01:55:37;;;;;;;401.65;35.90;;;;;;;;;;5016600;28;20024;-83
2022/12/10 01:58:02;;;;;;;653.45;46.35;;;;;;;;;;5016092;28;20491;-82
2022/12/10 02:00:28;;;;;;;290.42;33.20;;;;;;;;;;5035066;28;20048;-82
2022/12/10 02:02:56;;;;;;;476.27;38.17;;;;;;;;;;5015468;28;20107;-82
2022/12/10 02:05:30;;;;;;;252.25;31.17;;;;;;;;;;5044266;28;20055;-82
2022/12/10 02:08:10;;;;;;;369.73;33.35;;;;;;;;;;5039304;28;20523;-82
2022/12/10 02:10:40;;;;;;;279.67;32.03;;;;;;;;;;5003849;28;20033;-82
2022/12/10 02:13:24;;;;;;;157.13;29.35;;;;;;;;;;5012286;28;20053;-82
2022/12/10 02:16:09;;;;;;;196.68;31.65;;;;;;;;;;5045700;28;20049;-82
2022/12/10 02:18:39;;;;;;;240.88;34.60;;;;;;;;;;5037687;28;20044;-82
2022/12/10 02:21:10;;;;;;;205.52;34.35;;;;;;;;;;5041400;28;20091;-82
2022/12/10 02:23:36;;;;;;;146.25;30.55;;;;;;;;;;5032288;28;20073;-82
2022/12/10 02:26:09;;;;;;;177.48;32.22;;;;;;;;;;5001572;28;20070;-82
2022/12/10 02:28:47;;;;;;;291.38;33.25;;;;;;;;;;5036326;28;20044;-82
2022/12/10 02:31:13;;;;;;;336.33;35.90;;;;;;;;;;5035121;28;20496;-82
2022/12/10 02:33:39;;;;;;;168.05;30.10;;;;;;;;;;5012219;28;20480;-82
2022/12/10 02:36:05;;;;;;;241.57;32.50;;;;;;;;;;5036331;28;20044;-82
2022/12/10 02:38:31;;;;;;;149.95;28.65;;;;;;;;;;5020535;28;20032;-82
2022/12/10 02:40:59;;;;;;;324.35;35.92;;;;;;;;;;5021206;28;20107;-82
2022/12/10 02:43:25;;;;;;;;;;;;;;;;;;5004487;28;20923;-82
2022/12/10 02:45:50;;;;;;;317.92;33.42;;;;;;;;;;5055122;28;20004;-82
2022/12/10 02:48:16;;;;;;;371.48;42.40;;;;;;;;;;5016260;28;20562;-82
2022/12/10 02:50:42;;;;;;;;;;;;;;;;;;5050605;28;20040;-82
2022/12/10 02:53:07;;;;;;;337.75;34.20;;;;;;;;;;5045071;28;19909;-82
2022/12/10 02:55:47;;;;;;;607.08;43.53;;;;;;;;;;5035767;28;20408;-82
2022/12/10 02:58:15;;;;;;;177.30;28.98;;;;;;;;;;5018989;28;20040;-81
2022/12/10 03:00:56;;;;;;;473.02;40.88;;;;;;;;;;5037803;28;20036;-82
2022/12/10 03:03:24;;;;;;;273.17;33.85;;;;;;;;;;5019846;28;20033;-81
2022/12/10 03:06:29;;;;;;;495.58;43.92;;;;;;;;;;5051191;28;20102;-82
2022/12/10 03:08:58;;;;;;;195.10;31.10;;;;;;;;;;4928652;29;20044;-81
2022/12/10 03:11:24;;;;;;;192.20;30.10;;;;;;;;;;4912583;29;20509;-81
2022/12/10 03:14:00;;;;;;;154.57;30.17;;;;;;;;;;4998777;28;20135;-82
2022/12/10 03:16:26;;;;;;;134.10;29.63;;;;;;;;;;5028324;28;20060;-81
2022/12/10 03:18:53;;;;;;;294.77;36.40;;;;;;;;;;5046581;28;20043;-82
2022/12/10 03:21:19;;;;;;;294.27;34.03;;;;;;;;;;5047947;28;20045;-82
2022/12/10 03:23:45;;;;;;;268.35;35.17;;;;;;;;;;5018782;28;20027;-82
2022/12/10 03:26:11;;;;;;;155.05;31.75;;;;;;;;;;5028503;28;20119;-82
2022/12/10 03:28:41;;;;;;;201.75;31.02;;;;;;;;;;5037289;28;20124;-82
2022/12/10 03:31:08;;;;;;;152.27;30.27;;;;;;;;;;5012759;28;20040;-82
2022/12/10 03:33:33;;;;;;;234.25;32.83;;;;;;;;;;5035867;28;20020;-82
2022/12/10 03:35:59;;;;;;;284.50;33.35;;;;;;;;;;5042650;28;20091;-82
2022/12/10 03:38:25;;;;;;;196.00;31.63;;;;;;;;;;5040794;28;20028;-82
2022/12/10 03:40:50;;;;;;;459.02;41.25;;;;;;;;;;5054852;28;20042;-82
2022/12/10 03:43:16;;;;;;;243.60;33.75;;;;;;;;;;5065818;28;20032;-82
2022/12/10 03:45:41;;;;;;;499.98;40.40;;;;;;;;;;5036390;28;20594;-82
2022/12/10 03:48:07;;;;;;;309.02;37.00;;;;;;;;;;5052561;28;20055;-82
2022/12/10 03:50:32;;;;;;;248.15;36.50;;;;;;;;;;5018264;28;20081;-82
2022/12/10 03:52:58;;;;;;;341.45;36.22;;;;;;;;;;5034625;28;20040;-82
2022/12/10 03:55:23;;;;;;;245.88;34.22;;;;;;;;;;5038330;28;20028;-82
2022/12/10 03:57:49;;;;;;;288.25;35.38;;;;;;;;;;5054468;28;20500;-83
2022/12/10 04:00:14;;;;;;;244.32;36.00;;;;;;;;;;5041806;28;20040;-83
2022/12/10 04:02:40;;;;;;;244.18;33.08;;;;;;;;;;5032066;28;20025;-83
2022/12/10 04:05:06;;;;;;;388.20;39.22;;;;;;;;;;5038586;28;20052;-82
2022/12/10 04:07:32;;;;;;;317.50;36.70;;;;;;;;;;5055893;28;20032;-82
2022/12/10 04:09:57;;;;;;;356.17;37.72;;;;;;;;;;5067957;28;20514;-82
2022/12/10 04:12:23;;;;;;;300.52;37.47;;;;;;;;;;5053213;28;20067;-82
2022/12/10 04:17:33;;;;;;;136.10;30.00;;;;;;;;;;5040299;28;20407;-82
2022/12/10 04:19:58;;;;;;;201.93;32.83;;;;;;;;;;5013040;28;20038;-82
2022/12/10 04:27:54;;;;;;;160.27;30.45;;;;;;;;;;5031665;28;20038;-82
2022/12/10 04:30:19;;;;;;;140.43;30.00;;;;;;;;;;5051813;28;20025;-82
2022/12/10 04:32:45;;;;;;;132.65;28.50;;;;;;;;;;5039313;28;20037;-81
2022/12/10 04:35:10;;;;;;;126.47;28.90;;;;;;;;;;5051962;28;20090;-82
2022/12/10 04:37:36;;;;;;;133.07;28.67;;;;;;;;;;5034462;28;20033;-82
2022/12/10 04:40:02;;;;;;;139.63;30.13;;;;;;;;;;5033952;28;20055;-82
2022/12/10 04:42:28;;;;;;;131.00;31.23;;;;;;;;;;5033760;28;20045;-82
2022/12/10 04:44:53;;;;;;;181.60;32.05;;;;;;;;;;5033725;28;20535;-82
2022/12/10 04:47:19;;;;;;;140.75;30.45;;;;;;;;;;5051495;28;20119;-84
2022/12/10 04:49:44;;;;;;;163.50;42.70;;;;;;;;;;5033322;28;20480;-83
2022/12/10 04:52:10;;;;;;;175.93;41.63;;;;;;;;;;5006186;28;20036;-82
2022/12/10 04:54:36;;;;;;;;;;;;;;;;;;5033261;28;20045;-82
2022/12/10 04:57:01;;;;;;;119.72;29.08;;;;;;;;;;5059265;28;20444;-82
2022/12/10 04:59:27;;;;;;;120.07;27.42;;;;;;;;;;5050217;28;20017;-82
2022/12/10 05:01:54;;;;;;;121.97;29.42;;;;;;;;;;5045538;28;20036;-82
2022/12/10 05:04:20;;;;;;;130.85;28.73;;;;;;;;;;5046068;28;20063;-82
2022/12/10 05:06:47;;;;;;;107.07;28.42;;;;;;;;;;5061583;28;20039;-82
2022/12/10 05:09:12;;;;;;;136.15;30.15;;;;;;;;;;5034336;28;20078;-82
2022/12/10 05:11:38;;;;;;;124.60;28.88;;;;;;;;;;5040122;28;20099;-82
2022/12/10 05:14:03;;;;;;;111.80;27.77;;;;;;;;;;5043364;28;20423;-81
2022/12/10 05:16:30;;;;;;;102.13;26.77;;;;;;;;;;5052019;28;20036;-82
2022/12/10 05:18:55;;;;;;;101.68;28.30;;;;;;;;;;5050898;28;20506;-83
2022/12/10 05:21:22;;;;;;;118.35;28.13;;;;;;;;;;5052422;28;20415;-82
2022/12/10 05:23:49;;;;;;;97.38;26.88;;;;;;;;;;5041801;28;20111;-83
2022/12/10 05:26:18;;;;;;;115.22;29.40;;;;;;;;;;5032987;28;20032;-83
2022/12/10 05:28:48;;;;;;;109.18;28.67;;;;;;;;;;5050551;28;20082;-84
2022/12/10 05:31:17;;;;;;;104.97;28.70;;;;;;;;;;5044066;28;20106;-82
2022/12/10 05:33:43;;;;;;;105.38;29.27;;;;;;;;;;5018453;28;20035;-84
2022/12/10 05:36:09;;;;;;;116.55;34.22;;;;;;;;;;5053717;28;20024;-81
2022/12/10 05:38:34;;;;;;;110.97;30.02;;;;;;;;;;5054803;28;20067;-82
2022/12/10 05:41:00;;;;;;;115.00;28.55;;;;;;;;;;5030763;28;20428;-82
2022/12/10 05:43:26;;;;;;;;;;;;;;;;;;5026947;28;20029;-83
2022/12/10 05:45:51;;;;;;;110.45;29.33;;;;;;;;;;5033524;28;19919;-83
2022/12/10 05:48:17;;;;;;;121.15;29.38;;;;;;;;;;5033566;28;20025;-83
2022/12/10 05:50:43;;;;;;;128.70;29.05;;;;;;;;;;5049676;28;20076;-83
2022/12/10 05:53:08;;;;;;;116.53;29.30;;;;;;;;;;5014076;28;20487;-83
2022/12/10 05:55:34;;;;;;;115.18;29.92;;;;;;;;;;5050419;28;20068;-82
2022/12/10 05:58:00;;;;;;;104.38;27.17;;;;;;;;;;5024197;28;20029;-83
2022/12/10 06:00:26;;;;;;;136.48;30.45;;;;;;;;;;5040064;28;20033;-83
2022/12/10 06:02:52;;;;;;;103.88;29.08;;;;;;;;;;5051027;28;20115;-83
2022/12/10 06:05:17;;;;;;;98.70;28.38;;;;;;;;;;5063820;28;20044;-84
2022/12/10 06:07:43;;;;;;;132.10;30.73;;;;;;;;;;5046394;28;20036;-84
2022/12/10 06:10:08;;;;;;;137.05;31.92;;;;;;;;;;5059054;28;20395;-82
2022/12/10 06:12:34;;;;;;;147.10;33.40;;;;;;;;;;5057742;28;20025;-83
2022/12/10 06:15:00;;;;;;;124.22;30.85;;;;;;;;;;5017556;28;20053;-84
2022/12/10 06:17:25;;;;;;;117.57;30.70;;;;;;;;;;5015118;28;20057;-83
2022/12/10 06:19:51;;;;;;;132.32;33.00;;;;;;;;;;5019099;28;20511;-83
2022/12/10 06:22:16;;;;;;;130.25;38.00;;;;;;;;;;5004648;28;20037;-84
2022/12/10 06:24:41;;;;;;;115.07;31.27;;;;;;;;;;5007768;28;20042;-83
2022/12/10 06:27:07;;;;;;;113.07;31.63;;;;;;;;;;5011640;28;20045;-84
2022/12/10 06:29:33;;;;;;;124.57;32.30;;;;;;;;;;5005655;28;20034;-83
2022/12/10 06:31:58;;;;;;;118.00;31.30;;;;;;;;;;5012219;28;20707;-81
2022/12/10 06:34:23;;;;;;;126.82;33.47;;;;;;;;;;5017633;28;20493;-83
2022/12/10 06:36:49;;;;;;;117.53;31.35;;;;;;;;;;5037064;28;20034;-84
2022/12/10 06:39:14;;;;;;;113.57;32.35;;;;;;;;;;5019663;28;20030;-83
2022/12/10 06:41:43;;;;;;;126.68;33.15;;;;;;;;;;5028222;28;20051;-83
2022/12/10 06:44:09;;;;;;;120.85;33.05;;;;;;;;;;5016964;28;20490;-83
2022/12/10 06:46:35;;;;;;;138.68;37.17;;;;;;;;;;5019858;28;20052;-83
2022/12/10 06:49:00;;;;;;;143.40;46.22;;;;;;;;;;5006508;28;20034;-83
2022/12/10 06:51:25;;;;;;;124.22;30.25;;;;;;;;;;5012566;28;20033;-84
2022/12/10 06:53:52;;;;;;;117.82;28.00;;;;;;;;;;5016009;28;20068;-83
2022/12/10 06:56:18;;;;;;;129.20;29.77;;;;;;;;;;5015976;28;20025;-83
2022/12/10 06:58:43;;;;;;;109.00;27.13;;;;;;;;;;4993685;28;20034;-83
2022/12/10 07:01:10;;;;;;;139.00;29.38;;;;;;;;;;5010352;28;20064;-90
2022/12/10 07:03:36;;;;;;;130.90;28.17;;;;;;;;;;5003011;28;20042;-83
2022/12/10 07:06:01;;;;;;;168.15;42.00;;;;;;;;;;5022315;28;20029;-84
2022/12/10 07:08:27;;;;;;;129.40;29.77;;;;;;;;;;5018781;28;20049;-84
2022/12/10 07:10:53;;;;;;;113.90;27.65;;;;;;;;;;5014344;28;20454;-84
2022/12/10 07:13:18;;;;;;;120.07;28.15;;;;;;;;;;5013614;28;20037;-84
2022/12/10 07:15:44;;;;;;;126.50;26.27;;;;;;;;;;5013505;28;20069;-85
2022/12/10 07:18:09;;;;;;;129.85;26.58;;;;;;;;;;5013541;28;20037;-83
2022/12/10 07:20:35;;;;;;;132.82;27.30;;;;;;;;;;5007093;28;20444;-81
2022/12/10 07:23:00;;;;;;;157.57;29.63;;;;;;;;;;5033890;28;20033;-83
2022/12/10 07:25:26;;;;;;;134.35;29.23;;;;;;;;;;5012718;28;20026;-82
2022/12/10 07:27:51;;;;;;;164.77;29.77;;;;;;;;;;5023984;28;20034;-83
2022/12/10 07:30:16;;;;;;;114.45;27.40;;;;;;;;;;5015595;28;20041;-81
2022/12/10 07:32:42;;;;;;;180.82;29.73;;;;;;;;;;5011564;28;20036;-80
2022/12/10 07:35:07;;;;;;;139.05;28.02;;;;;;;;;;5016000;28;20048;-83
2022/12/10 07:37:33;;;;;;;146.65;36.47;;;;;;;;;;5014128;28;20036;-78
2022/12/10 07:39:58;;;;;;;220.80;44.65;;;;;;;;;;5012256;28;20030;-79
2022/12/10 07:42:24;;;;;;;318.73;54.90;;;;;;;;;;5011211;28;20084;-78
2022/12/10 07:44:49;;;;;;;559.60;57.80;;;;;;;;;;5013058;28;20033;-78
2022/12/10 07:47:15;;;;;;;297.73;45.85;;;;;;;;;;5013886;28;20141;-80
2022/12/10 07:49:40;;;;;;;231.05;42.15;;;;;;;;;;5012307;28;20687;-79
2022/12/10 07:52:07;;;;;;;200.00;39.50;;;;;;;;;;5011516;28;20030;-78
2022/12/10 07:54:35;;;;;;;232.65;41.45;;;;;;;;;;4996545;28;20033;-78
2022/12/10 07:57:00;;;;;;;380.38;47.25;;;;;;;;;;5010295;28;20453;-78
2022/12/10 07:59:26;;;;;;;171.77;37.60;;;;;;;;;;5020779;28;20036;-78
2022/12/10 08:01:52;;;;;;;217.43;41.28;;;;;;;;;;5013479;28;20028;-79
2022/12/10 08:04:17;;;;;;;189.00;39.25;;;;;;;;;;5009476;28;20385;-80
2022/12/10 08:06:43;;;;;;;155.63;36.83;;;;;;;;;;5016658;28;20026;-81
2022/12/10 08:09:08;;;;;;;139.38;35.78;;;;;;;;;;5020541;28;20030;-78
2022/12/10 08:11:34;;;;;;;194.57;38.15;;;;;;;;;;5016967;28;20378;-81
2022/12/10 08:13:59;;;;;;;178.73;37.53;;;;;;;;;;5010141;28;20030;-81
2022/12/10 08:16:26;;;;;;;320.25;43.30;;;;;;;;;;5020095;28;20064;-80
2022/12/10 08:18:51;;;;;;;132.77;39.50;;;;;;;;;;5012564;28;20041;-83
2022/12/10 08:21:18;;;;;;;150.48;25.55;;;;;;;;;;5012597;28;20117;-80
2022/12/10 08:23:44;;;;;;;133.20;28.23;;;;;;;;;;5011669;28;20033;-80
2022/12/10 08:26:10;;;;;;;129.88;26.60;;;;;;;;;;5009335;28;20112;-79
2022/12/10 08:28:36;;;;;;;181.55;28.88;;;;;;;;;;5011908;28;20038;-78
2022/12/10 08:31:01;;;;;;;108.20;23.92;;;;;;;;;;5011913;28;20535;-81
2022/12/10 08:33:27;;;;;;;144.93;23.30;;;;;;;;;;5013053;28;20018;-80
2022/12/10 08:35:52;;;;;;;99.97;24.23;;;;;;;;;;5018869;28;20041;-79
2022/12/10 08:38:18;;;;;;;97.80;21.92;;;;;;;;;;5027939;28;20094;-80
2022/12/10 08:40:44;;;;;;;128.20;26.02;;;;;;;;;;5008590;28;20034;-82
2022/12/10 08:43:09;;;;;;;88.90;23.00;;;;;;;;;;5016256;28;20056;-81
2022/12/10 08:45:35;;;;;;;120.40;48.22;;;;;;;;;;5003090;28;20037;-83
2022/12/10 08:48:00;;;;;;;101.15;24.65;;;;;;;;;;5022118;28;20057;-81
2022/12/10 08:50:26;;;;;;;77.70;21.88;;;;;;;;;;5016816;28;20025;-82
2022/12/10 08:52:52;;;;;;;96.93;23.83;;;;;;;;;;5020773;28;20091;-82
2022/12/10 08:55:17;;;;;;;71.90;20.15;;;;;;;;;;5017791;28;20484;-79
2022/12/10 08:57:42;;;;;;;71.82;21.20;;;;;;;;;;5015236;28;20021;-79
2022/12/10 09:00:09;;;;;;;52.58;18.38;;;;;;;;;;5019053;28;20030;-79
2022/12/10 09:02:34;;;;;;;61.22;20.35;;;;;;;;;;5025279;28;20033;-79
2022/12/10 09:05:00;;;;;;;46.42;16.80;;;;;;;;;;5025819;28;20055;-79
2022/12/10 09:07:26;;;;;;;52.88;16.75;;;;;;;;;;5023845;28;20025;-78
2022/12/10 09:09:52;;;;;;;48.75;17.38;;;;;;;;;;5021027;28;20064;-78
2022/12/10 09:12:17;;;;;;;42.40;16.88;;;;;;;;;;5025342;28;20067;-80
2022/12/10 09:14:43;;;;;;;51.70;16.67;;;;;;;;;;5037450;28;20110;-79
2022/12/10 09:17:08;;;;;;;52.97;18.45;;;;;;;;;;5031190;28;20033;-79
2022/12/10 09:19:34;;;;;;;50.55;17.73;;;;;;;;;;5043845;28;20029;-79
2022/12/10 09:21:59;;;;;;;51.97;18.15;;;;;;;;;;5036277;28;20087;-79
2022/12/10 09:24:25;;;;;;;51.65;19.23;;;;;;;;;;5037268;28;20498;-82
2022/12/10 09:26:50;;;;;;;45.05;15.95;;;;;;;;;;5035928;28;20041;-77
2022/12/10 09:29:16;;;;;;;39.38;14.63;;;;;;;;;;5034679;28;20021;-78
2022/12/10 09:31:42;;;;;;;38.22;14.43;;;;;;;;;;5016425;28;20428;-78
2022/12/10 09:34:08;;;;;;;36.88;13.75;;;;;;;;;;5050195;28;20393;-78
2022/12/10 09:36:33;;;;;;;39.38;13.98;;;;;;;;;;5033030;28;20025;-78
2022/12/10 09:38:58;;;;;;;37.58;13.38;;;;;;;;;;5055691;28;20033;-78
2022/12/10 09:41:50;;;;;;;35.53;13.15;;;;;;;;;;5055577;28;20467;-78
2022/12/10 09:44:34;;;;;;;34.95;12.93;;;;;;;;;;5033664;28;20045;-80
2022/12/10 09:47:00;;;;;;;36.75;13.20;;;;;;;;;;5053294;28;20037;-79
2022/12/10 09:49:32;;;;;;;40.13;13.80;;;;;;;;;;5033183;28;20028;-79
2022/12/10 09:51:59;;;;;;;35.63;12.60;;;;;;;;;;5051114;28;20028;-79
2022/12/10 09:54:32;;;;;;;33.25;12.20;;;;;;;;;;5021847;28;20074;-79
2022/12/10 09:56:58;;;;;;;34.30;12.75;;;;;;;;;;5027538;28;20040;-79
2022/12/10 09:59:27;;;;;;;34.30;12.60;;;;;;;;;;5032995;28;20041;-78
2022/12/10 10:02:19;;;;;;;36.63;11.90;;;;;;;;;;5051278;28;20427;-77
2022/12/10 10:04:44;;;;;;;34.92;12.27;;;;;;;;;;5037387;28;20040;-79
2022/12/10 10:07:12;;;;;;;32.28;12.27;;;;;;;;;;5015269;28;20461;-79
2022/12/10 10:09:38;;;;;;;37.20;11.55;;;;;;;;;;5033521;28;20116;-78
2022/12/10 10:12:03;;;;;;;;;;;;;;;;;;5029279;28;20408;-79
2022/12/10 10:14:29;;;;;;;33.53;11.77;;;;;;;;;;5033256;28;20035;-79
2022/12/10 10:16:57;;;;;;;29.38;10.85;;;;;;;;;;5033582;28;20519;-78
2022/12/10 10:19:25;;;;;;;30.95;11.25;;;;;;;;;;5031752;28;20035;-79
2022/12/10 10:21:50;;;;;;;29.20;11.52;;;;;;;;;;5032905;28;20033;-79
2022/12/10 10:24:17;;;;;;;30.10;11.23;;;;;;;;;;5051070;28;20060;-79
2022/12/10 10:26:42;;;;;;;;;;;;;;;;;;5035303;28;20120;-79
2022/12/10 10:29:08;;;;;;;27.70;10.35;;;;;;;;;;5069296;28;19912;-78
2022/12/10 10:31:34;;;;;;;28.52;10.93;;;;;;;;;;5037560;28;20125;-78
2022/12/10 10:34:00;;;;;;;;;;;;;;;;;;5035591;28;20033;-79
2022/12/10 10:36:27;;;;;;;29.95;11.80;;;;;;;;;;5065989;28;20926;-79
2022/12/10 10:38:52;;;;;;;24.15;10.30;;;;;;;;;;5033880;28;20029;-80
2022/12/10 10:41:18;;;;;;;24.98;10.63;;;;;;;;;;5053317;28;20036;-79
2022/12/10 10:43:47;;;;;;;30.00;12.70;;;;;;;;;;5035530;28;20504;-79
2022/12/10 10:46:22;;;;;;;22.35;10.55;;;;;;;;;;5021759;28;20544;-78
2022/12/10 10:48:47;;;;;;;26.20;11.52;;;;;;;;;;5038295;28;20029;-78
2022/12/10 10:51:15;;;;;;;26.67;11.35;;;;;;;;;;5036255;28;20039;-78
2022/12/10 10:53:49;;;;;;;27.15;10.20;;;;;;;;;;5046570;28;20377;-79
2022/12/10 10:56:19;;;;;;;26.42;12.70;;;;;;;;;;5036074;28;20399;-78
2022/12/10 10:59:04;;;;;;;24.10;9.77;;;;;;;;;;5055879;28;20048;-79
2022/12/10 11:01:51;;;;;;;24.20;10.45;;;;;;;;;;5054301;28;20706;-78
2022/12/10 11:04:18;;;;;;;22.52;9.70;;;;;;;;;;5037185;28;20024;-80
2022/12/10 11:06:43;;;;;;;22.58;9.27;;;;;;;;;;5050750;28;20036;-79
2022/12/10 11:09:17;;;;;;;21.92;9.98;;;;;;;;;;5021715;28;20037;-79
2022/12/10 11:11:43;;;;;;;23.88;9.55;;;;;;;;;;5040526;28;20024;-79
2022/12/10 11:14:15;;;;;;;21.88;9.70;;;;;;;;;;5037457;28;20027;-80
2022/12/10 11:16:41;;;;;;;25.55;9.90;;;;;;;;;;5035001;28;20037;-78
2022/12/10 11:19:08;;;;;;;21.35;9.02;;;;;;;;;;5053746;28;20039;-79
2022/12/10 11:21:33;;;;;;;19.38;9.50;;;;;;;;;;5035498;28;20119;-79
2022/12/10 11:23:59;;;;;;;22.02;10.45;;;;;;;;;;5035696;28;20116;-79
2022/12/10 11:26:34;;;;;;;21.42;10.85;;;;;;;;;;5035559;28;20036;-80
2022/12/10 11:29:09;;;;;;;19.38;9.07;;;;;;;;;;5034833;28;20044;-80
2022/12/10 11:31:37;;;;;;;19.10;9.45;;;;;;;;;;5034844;28;20140;-79
2022/12/10 11:34:09;;;;;;;23.63;10.65;;;;;;;;;;5058991;28;20035;-80
2022/12/10 11:36:53;;;;;;;23.73;11.02;;;;;;;;;;5036384;28;20048;-78
2022/12/10 11:39:30;;;;;;;21.60;8.98;;;;;;;;;;5053146;28;20504;-78
2022/12/10 11:42:11;;;;;;;19.30;9.73;;;;;;;;;;5035899;28;20068;-81
2022/12/10 11:44:36;;;;;;;17.85;9.20;;;;;;;;;;5054981;28;20561;-78
2022/12/10 11:47:06;;;;;;;16.20;9.20;;;;;;;;;;5051101;28;20025;-81
2022/12/10 11:49:38;;;;;;;17.08;9.10;;;;;;;;;;5035827;28;20115;-80
2022/12/10 11:52:04;;;;;;;16.83;8.73;;;;;;;;;;5057552;28;20102;-78
2022/12/10 11:54:29;;;;;;;;;;;;;;;;;;5052890;28;20108;-79
2022/12/10 11:56:59;;;;;;;16.98;7.85;;;;;;;;;;5054191;28;19999;-80
2022/12/10 11:59:25;;;;;;;17.05;7.53;;;;;;;;;;5021958;28;20127;-80
2022/12/10 12:02:00;;;;;;;15.85;7.72;;;;;;;;;;5059655;28;20043;-78
2022/12/10 12:04:38;;;;;;;14.65;8.02;;;;;;;;;;5072262;28;20062;-79
2022/12/10 12:07:22;;;;;;;15.60;8.38;;;;;;;;;;5070878;28;20067;-80
2022/12/10 12:09:51;;;;;;;17.08;9.57;;;;;;;;;;5060585;28;20036;-78
2022/12/10 12:12:16;;;;;;;18.48;10.10;;;;;;;;;;5064461;28;20024;-79
2022/12/10 12:14:53;;;;;;;21.83;10.52;;;;;;;;;;5052836;28;20601;-80
2022/12/10 12:17:18;;;;;;;17.27;9.65;;;;;;;;;;5051876;28;20117;-80
2022/12/10 12:19:49;;;;;;;20.45;9.75;;;;;;;;;;5070207;28;20032;-79
2022/12/10 12:22:20;;;;;;;17.35;9.45;;;;;;;;;;5028572;28;20036;-79
2022/12/10 12:24:47;;;;;;;15.95;9.20;;;;;;;;;;5021688;28;20072;-81
2022/12/10 12:27:22;;;;;;;16.48;9.30;;;;;;;;;;5034653;28;20067;-79
2022/12/10 12:29:51;;;;;;;25.38;13.65;;;;;;;;;;5047346;28;20043;-79
2022/12/10 12:32:20;;;;;;;15.55;9.23;;;;;;;;;;5035540;28;20025;-79
2022/12/10 12:34:49;;;;;;;21.52;10.95;;;;;;;;;;5036325;28;20046;-79
2022/12/10 12:37:15;;;;;;;21.30;12.02;;;;;;;;;;5036086;28;20035;-79
2022/12/10 12:39:47;;;;;;;16.80;10.00;;;;;;;;;;5051716;28;20037;-80
2022/12/10 12:42:33;;;;;;;15.90;9.88;;;;;;;;;;5052160;28;20400;-79
2022/12/10 12:45:02;;;;;;;17.63;10.93;;;;;;;;;;4978516;28;20049;-80
2022/12/10 12:47:43;;;;;;;16.40;9.90;;;;;;;;;;5052239;28;20037;-81
2022/12/10 12:50:17;;;;;;;15.40;9.18;;;;;;;;;;5040403;28;20041;-78
2022/12/10 12:52:44;;;;;;;16.23;9.65;;;;;;;;;;5022090;28;20573;-78
2022/12/10 12:55:33;;;;;;;16.92;9.90;;;;;;;;;;5052148;28;20016;-80
2022/12/10 12:58:25;;;;;;;15.45;8.73;;;;;;;;;;5013660;28;20059;-79
2022/12/10 13:00:51;;;;;;;17.05;10.00;;;;;;;;;;5009545;28;20041;-79
2022/12/10 13:03:19;;;;;;;15.23;9.40;;;;;;;;;;5033779;28;20032;-79
2022/12/10 13:05:45;;;;;;;18.33;10.00;;;;;;;;;;5017752;28;20025;-78
2022/12/10 13:08:19;;;;;;;15.65;9.50;;;;;;;;;;5034642;28;20032;-82
2022/12/10 13:10:48;;;;;;;15.50;9.40;;;;;;;;;;5051157;28;20032;-79
2022/12/10 13:13:16;;;;;;;12.95;8.25;;;;;;;;;;5033604;28;20022;-80
2022/12/10 13:15:42;;;;;;;14.25;8.18;;;;;;;;;;5052192;28;20103;-78
2022/12/10 13:18:11;;;;;;;12.90;8.15;;;;;;;;;;5051130;28;20049;-80
2022/12/10 13:20:46;;;;;;;15.27;8.68;;;;;;;;;;5051778;28;20430;-78
2022/12/10 13:23:24;;;;;;;13.20;8.60;;;;;;;;;;5041158;28;20032;-80
2022/12/10 13:25:49;;;;;;;14.50;8.77;;;;;;;;;;5058630;28;20079;-82
2022/12/10 13:28:30;;;;;;;12.25;8.43;;;;;;;;;;5059482;28;20065;-80
2022/12/10 13:31:16;;;;;;;18.05;10.90;;;;;;;;;;5050172;28;20032;-80
2022/12/10 13:33:48;;;;;;;11.25;7.70;;;;;;;;;;5045250;28;20045;-79
2022/12/10 13:36:13;;;;;;;13.07;7.80;;;;;;;;;;5047730;28;20044;-79
2022/12/10 13:38:54;;;;;;;11.05;7.35;;;;;;;;;;5045744;28;20020;-80
2022/12/10 13:44:25;;;;;;;11.77;7.30;;;;;;;;;;5051204;28;20044;-79
2022/12/10 13:46:52;;;;;;;11.85;7.40;;;;;;;;;;5042007;28;20047;-80
2022/12/10 13:49:18;;;;;;;23.42;13.77;;;;;;;;;;5065972;28;20025;-78
2022/12/10 13:52:03;;;;;;;13.93;8.85;;;;;;;;;;5056013;28;20036;-80
2022/12/10 13:54:31;;;;;;;13.18;7.97;;;;;;;;;;5040444;28;20086;-80
2022/12/10 13:57:09;;;;;;;22.02;14.20;;;;;;;;;;5032847;28;20028;-79
2022/12/10 13:59:37;;;;;;;11.27;7.43;;;;;;;;;;5032882;28;20056;-80
2022/12/10 14:02:12;;;;;;;10.35;7.13;;;;;;;;;;5051013;28;20561;-80
2022/12/10 14:04:47;;;;;;;8.93;6.40;;;;;;;;;;5033766;28;20037;-81
2022/12/10 14:07:12;;;;;;;73.85;56.00;;;;;;;;;;5056214;28;20403;-79
2022/12/10 14:09:40;;;;;;;13.40;8.80;;;;;;;;;;5039536;28;20029;-80
2022/12/10 14:12:16;;;;;;;9.23;6.22;;;;;;;;;;5051200;28;20481;-80
2022/12/10 14:14:52;;;;;;;9.40;5.80;;;;;;;;;;5051548;28;20507;-79
2022/12/10 14:17:18;;;;;;;8.10;5.93;;;;;;;;;;5051093;28;20460;-80
2022/12/10 14:19:45;;;;;;;8.77;5.47;;;;;;;;;;5051907;28;20032;-81
2022/12/10 14:22:10;;;;;;;;;;;;;;;;;;5035948;28;20045;-80
2022/12/10 14:24:36;;;;;;;9.30;5.53;;;;;;;;;;5055950;28;19919;-79
2022/12/10 14:27:13;;;;;;;10.55;6.35;;;;;;;;;;5055797;28;20044;-80
2022/12/10 14:29:42;;;;;;;7.18;4.97;;;;;;;;;;5037343;28;20029;-80
2022/12/10 14:32:11;;;;;;;5.93;4.20;;;;;;;;;;5037704;28;20112;-79
2022/12/10 14:34:37;;;;;;;8.13;5.10;;;;;;;;;;5021493;28;20211;-81